createdAt,value
2023-04-19T00:01:16.622Z,97.15
2023-04-19T00:03:43.348Z,94.57
2023-04-19T00:06:10.237Z,96.32
2023-04-19T00:08:36.907Z,95.70
2023-04-19T00:11:03.557Z,95.28
2023-04-19T00:13:30.216Z,93.45
2023-04-19T00:15:56.839Z,96.50
2023-04-19T00:18:23.450Z,92.85
2023-04-19T00:20:50.137Z,96.47
2023-04-19T00:23:16.950Z,94.57
2023-04-19T00:25:43.634Z,92.43
2023-04-19T00:28:10.371Z,97.97
2023-04-19T00:30:36.984Z,93.88
2023-04-19T00:33:03.792Z,92.57
2023-04-19T00:35:30.537Z,92.63
2023-04-19T00:37:57.361Z,92.03
2023-04-19T00:40:24.141Z,93.10
2023-04-19T00:42:50.859Z,92.75
2023-04-19T00:45:17.465Z,94.18
2023-04-19T00:47:44.141Z,93.22
2023-04-19T00:50:12.183Z,92.90
2023-04-19T00:52:39.280Z,94.53
2023-04-19T00:55:07.034Z,92.85
2023-04-19T00:57:33.793Z,93.40
2023-04-19T01:00:01.182Z,98.72
2023-04-19T01:02:28.542Z,92.45
2023-04-19T01:04:55.630Z,94.45
2023-04-19T01:07:22.341Z,92.07
2023-04-19T01:09:48.952Z,92.53
2023-04-19T01:12:15.642Z,93.20
2023-04-19T01:14:42.296Z,96.28
2023-04-19T01:17:09.506Z,97.00
2023-04-19T01:19:36.973Z,95.35
2023-04-19T01:22:04.117Z,92.82
2023-04-19T01:24:31.156Z,94.70
2023-04-19T01:26:57.959Z,93.32
2023-04-19T01:29:24.728Z,91.63
2023-04-19T01:31:53.762Z,92.75
2023-04-19T01:34:20.814Z,92.15
2023-04-19T01:36:47.519Z,92.72
2023-04-19T01:39:14.155Z,93.70
2023-04-19T01:41:40.910Z,91.47
2023-04-19T01:44:07.630Z,91.90
2023-04-19T01:46:35.081Z,95.22
2023-04-19T01:49:01.737Z,92.90
2023-04-19T01:51:28.316Z,93.35
2023-04-19T01:53:54.997Z,91.28
2023-04-19T01:56:24.822Z,91.93
2023-04-19T01:58:51.442Z,93.75
2023-04-19T02:01:18.065Z,92.50
2023-04-19T02:03:44.838Z,95.05
2023-04-19T02:06:12.910Z,92.85
2023-04-19T02:08:42.903Z,93.05
2023-04-19T02:11:10.581Z,93.97
2023-04-19T02:13:37.554Z,92.53
2023-04-19T02:16:05.856Z,93.35
2023-04-19T02:18:33.374Z,97.68
2023-04-19T02:21:00.258Z,93.85
2023-04-19T02:23:26.957Z,93.15
2023-04-19T02:25:53.725Z,93.43
2023-04-19T02:28:20.517Z,94.63
2023-04-19T02:30:47.174Z,94.03
2023-04-19T02:33:14.748Z,94.00
2023-04-19T02:35:41.613Z,96.57
2023-04-19T02:38:08.222Z,94.60
2023-04-19T02:40:34.894Z,93.22
2023-04-19T02:43:01.524Z,93.88
2023-04-19T02:45:28.100Z,95.18
2023-04-19T02:47:55.183Z,95.10
2023-04-19T02:50:21.872Z,94.35
2023-04-19T02:52:48.756Z,94.88
2023-04-19T02:55:15.532Z,95.60
2023-04-19T02:57:42.314Z,95.75
2023-04-19T03:00:10.325Z,95.72
2023-04-19T03:02:38.010Z,101.50
2023-04-19T03:05:05.223Z,95.50
2023-04-19T03:07:31.908Z,94.82
2023-04-19T03:09:58.662Z,101.28
2023-04-19T03:12:25.287Z,98.25
2023-04-19T03:14:51.943Z,96.70
2023-04-19T03:17:18.604Z,95.20
2023-04-19T03:19:45.313Z,93.75
2023-04-19T03:22:11.930Z,98.35
2023-04-19T03:24:38.521Z,93.95
2023-04-19T03:27:05.331Z,95.40
2023-04-19T03:29:32.018Z,96.50
2023-04-19T03:31:58.618Z,99.38
2023-04-19T03:34:25.261Z,98.30
2023-04-19T03:36:51.865Z,96.07
2023-04-19T03:39:18.500Z,97.43
2023-04-19T03:41:45.187Z,99.72
2023-04-19T03:44:11.880Z,96.10
2023-04-19T03:46:38.586Z,98.68
2023-04-19T03:49:06.065Z,100.10
2023-04-19T03:51:32.669Z,97.32
2023-04-19T03:53:59.324Z,98.78
2023-04-19T03:56:25.983Z,97.82
2023-04-19T03:58:52.732Z,97.53
2023-04-19T04:01:20.751Z,100.00
2023-04-19T04:03:47.894Z,98.28
2023-04-19T04:06:14.892Z,98.07
2023-04-19T04:08:41.549Z,100.43
2023-04-19T04:11:08.160Z,99.90
2023-04-19T04:13:34.802Z,100.78
2023-04-19T04:16:01.466Z,101.57
2023-04-19T04:18:28.598Z,101.75
2023-04-19T04:20:55.579Z,100.30
2023-04-19T04:23:22.750Z,103.20
2023-04-19T04:26:00.879Z,103.68
2023-04-19T04:28:28.226Z,102.22
2023-04-19T04:30:59.110Z,101.25
2023-04-19T04:33:29.106Z,103.57
2023-04-19T04:35:56.738Z,98.28
2023-04-19T04:38:24.902Z,105.72
2023-04-19T04:40:56.012Z,101.78
2023-04-19T04:43:24.221Z,106.43
2023-04-19T04:45:51.792Z,101.28
2023-04-19T04:48:18.472Z,100.18
2023-04-19T04:50:45.520Z,107.47
2023-04-19T04:53:13.044Z,100.95
2023-04-19T04:55:39.944Z,101.53
2023-04-19T04:58:07.061Z,101.25
2023-04-19T05:00:34.323Z,103.55
2023-04-19T05:03:02.157Z,102.57
2023-04-19T05:05:29.060Z,102.70
2023-04-19T05:07:55.776Z,101.57
2023-04-19T05:10:22.368Z,109.95
2023-04-19T05:12:49.035Z,98.20
2023-04-19T05:15:15.698Z,102.85
2023-04-19T05:17:43.218Z,100.38
2023-04-19T05:20:10.393Z,105.88
2023-04-19T05:22:37.528Z,101.85
2023-04-19T05:25:04.887Z,101.32
2023-04-19T05:27:31.532Z,103.82
2023-04-19T05:29:58.136Z,101.32
2023-04-19T05:32:24.810Z,99.35
2023-04-19T05:34:51.545Z,101.18
2023-04-19T05:37:18.173Z,102.47
2023-04-19T05:39:44.991Z,101.85
2023-04-19T05:42:11.714Z,98.95
2023-04-19T05:44:38.370Z,102.55
2023-04-19T05:47:05.071Z,103.32
2023-04-19T05:49:31.745Z,107.13
2023-04-19T05:51:58.458Z,106.55
2023-04-19T05:54:25.232Z,106.07
2023-04-19T05:56:51.884Z,102.70
2023-04-19T05:59:18.526Z,101.72
2023-04-19T06:01:45.291Z,105.05
2023-04-19T06:04:12.096Z,103.25
2023-04-19T06:06:39.210Z,102.43
2023-04-19T06:09:07.054Z,102.13
2023-04-19T06:11:42.826Z,100.82
2023-04-19T06:14:16.804Z,102.13
2023-04-19T06:16:43.592Z,101.13
2023-04-19T06:19:10.291Z,101.05
2023-04-19T06:21:36.978Z,99.45
2023-04-19T06:24:03.890Z,108.53
2023-04-19T06:26:30.558Z,98.60
2023-04-19T06:28:57.206Z,98.97
2023-04-19T06:31:23.993Z,96.90
2023-04-19T06:33:50.985Z,100.15
2023-04-19T06:36:17.788Z,95.25
2023-04-19T06:38:47.165Z,99.28
2023-04-19T06:41:13.810Z,96.03
2023-04-19T06:43:41.912Z,97.70
2023-04-19T06:46:09.811Z,97.45
2023-04-19T06:48:36.612Z,97.50
2023-04-19T06:51:03.348Z,96.60
2023-04-19T06:53:30.200Z,97.05
2023-04-19T06:56:02.329Z,95.57
2023-04-19T06:58:29.139Z,95.57
2023-04-19T07:00:56.273Z,98.47
2023-04-19T07:03:23.266Z,96.53
2023-04-19T07:05:52.247Z,95.35
2023-04-19T07:08:18.873Z,95.00
2023-04-19T07:10:45.675Z,95.15
2023-04-19T07:13:12.440Z,96.05
2023-04-19T07:15:39.154Z,99.10
2023-04-19T07:18:05.906Z,94.70
2023-04-19T07:20:32.811Z,97.40
2023-04-19T07:22:59.695Z,98.38
2023-04-19T07:25:26.610Z,96.45
2023-04-19T07:27:54.837Z,97.90
2023-04-19T07:30:21.608Z,95.30
2023-04-19T07:32:48.410Z,96.10
2023-04-19T07:35:15.212Z,96.20
2023-04-19T07:37:42.329Z,96.70
2023-04-19T07:40:09.798Z,96.82
2023-04-19T07:42:36.417Z,94.78
2023-04-19T07:45:03.266Z,94.80
2023-04-19T07:47:29.927Z,94.47
2023-04-19T07:49:56.575Z,94.15
2023-04-19T07:52:23.201Z,95.88
2023-04-19T07:54:49.818Z,95.05
2023-04-19T07:57:16.440Z,98.78
2023-04-19T07:59:43.061Z,93.38
2023-04-19T08:02:09.883Z,93.47
2023-04-19T08:04:37.941Z,94.07
2023-04-19T08:07:04.928Z,92.63
2023-04-19T08:09:34.020Z,92.70
2023-04-19T08:12:01.358Z,92.97
2023-04-19T08:14:37.277Z,92.70
2023-04-19T08:17:24.253Z,91.68
2023-04-19T08:19:53.761Z,92.63
2023-04-19T08:22:21.184Z,97.47
2023-04-19T08:24:51.604Z,93.53
2023-04-19T08:27:19.010Z,91.43
2023-04-19T08:29:46.072Z,93.95
2023-04-19T08:32:13.583Z,91.38
2023-04-19T08:34:40.814Z,92.72
2023-04-19T08:37:07.563Z,94.05
2023-04-19T08:39:35.177Z,90.05
2023-04-19T08:42:13.249Z,91.18
2023-04-19T08:45:06.290Z,91.55
2023-04-19T08:47:51.796Z,90.28
2023-04-19T08:50:32.541Z,91.00
2023-04-19T08:53:09.074Z,89.18
2023-04-19T08:56:06.775Z,89.72
2023-04-19T09:01:06.491Z,90.50
2023-04-19T09:03:40.873Z,89.57
2023-04-19T09:06:12.088Z,89.30
2023-04-19T09:08:40.656Z,88.88
2023-04-19T09:11:07.435Z,89.30
2023-04-19T09:13:36.767Z,90.65
2023-04-19T09:16:04.903Z,89.55
2023-04-19T09:18:33.191Z,90.45
2023-04-19T09:21:02.533Z,91.10
2023-04-19T09:23:29.205Z,90.90
2023-04-19T09:26:22.116Z,89.47
2023-04-19T09:29:02.285Z,89.50
2023-04-19T09:31:50.166Z,90.07
2023-04-19T09:34:18.700Z,90.10
2023-04-19T09:36:46.611Z,88.72
2023-04-19T09:39:14.649Z,91.75
2023-04-19T09:41:54.771Z,89.72
2023-04-19T09:44:58.776Z,89.35
2023-04-19T09:47:29.990Z,90.60
2023-04-19T09:50:22.518Z,88.68
2023-04-19T09:52:52.375Z,89.22
2023-04-19T09:55:26.690Z,91.47
2023-04-19T09:57:55.274Z,90.05
2023-04-19T10:00:23.259Z,89.60
2023-04-19T10:02:55.625Z,87.93
2023-04-19T10:05:24.127Z,86.07
2023-04-19T10:07:53.280Z,89.82
2023-04-19T10:10:27.623Z,86.43
2023-04-19T10:13:20.740Z,87.20
2023-04-19T10:15:53.846Z,89.28
2023-04-19T10:18:24.362Z,87.68
2023-04-19T10:20:57.728Z,86.95
2023-04-19T10:23:24.876Z,87.00
2023-04-19T10:25:57.510Z,87.00
2023-04-19T10:28:24.362Z,87.50
2023-04-19T10:30:56.223Z,87.22
2023-04-19T10:33:27.754Z,86.38
2023-04-19T10:35:58.973Z,88.40
2023-04-19T10:38:38.591Z,86.68
2023-04-19T10:41:13.641Z,84.93
2023-04-19T10:44:09.860Z,94.50
2023-04-19T10:46:40.179Z,86.93
2023-04-19T10:49:10.170Z,88.22
2023-04-19T10:51:38.919Z,85.85
2023-04-19T10:54:10.230Z,87.18
2023-04-19T10:56:36.817Z,88.15
2023-04-19T10:59:11.381Z,86.22
2023-04-19T11:01:46.486Z,85.45
2023-04-19T11:04:13.407Z,87.85
2023-04-19T11:06:52.680Z,85.90
2023-04-19T11:09:31.610Z,86.05
2023-04-19T11:12:03.361Z,88.10
2023-04-19T11:14:36.867Z,87.28
2023-04-19T11:17:15.437Z,85.85
2023-04-19T11:19:58.421Z,87.15
2023-04-19T11:22:36.039Z,84.95
2023-04-19T11:25:17.341Z,85.50
2023-04-19T11:27:46.355Z,85.70
2023-04-19T11:30:16.759Z,85.00
2023-04-19T11:32:48.276Z,86.30
2023-04-19T11:35:15.801Z,87.30
2023-04-19T11:37:42.494Z,83.47
2023-04-19T11:40:14.285Z,84.30
2023-04-19T11:42:41.066Z,84.50
2023-04-19T11:45:18.688Z,85.18
2023-04-19T11:47:53.194Z,84.78
2023-04-19T11:50:38.035Z,84.68
2023-04-19T11:53:20.385Z,84.93
2023-04-19T11:55:53.549Z,84.72
2023-04-19T11:58:29.083Z,89.55
2023-04-19T12:00:58.289Z,83.43
2023-04-19T12:03:26.718Z,84.85
2023-04-19T12:05:58.560Z,85.85
2023-04-19T12:08:36.459Z,86.55
2023-04-19T12:11:04.310Z,84.18
2023-04-19T12:13:32.009Z,84.40
2023-04-19T12:15:59.126Z,84.40
2023-04-19T12:18:27.213Z,82.93
2023-04-19T12:20:54.852Z,85.18
2023-04-19T12:23:21.661Z,82.80
2023-04-19T12:25:49.847Z,86.25
2023-04-19T12:28:17.051Z,82.47
2023-04-19T12:30:44.107Z,83.47
2023-04-19T12:33:10.947Z,83.28
2023-04-19T12:35:38.523Z,82.97
2023-04-19T12:38:05.330Z,82.87
2023-04-19T12:40:32.226Z,84.00
2023-04-19T12:42:58.878Z,82.20
2023-04-19T12:45:25.577Z,83.03
2023-04-19T12:47:52.376Z,89.95
2023-04-19T12:50:19.047Z,83.68
2023-04-19T12:52:46.227Z,83.95
2023-04-19T12:55:13.105Z,86.00
2023-04-19T12:57:39.807Z,83.63
2023-04-19T13:00:10.986Z,83.82
2023-04-19T13:02:37.921Z,83.93
2023-04-19T13:05:06.309Z,83.00
2023-04-19T13:07:33.159Z,87.63
2023-04-19T13:10:00.126Z,86.63
2023-04-19T13:12:27.748Z,84.95
2023-04-19T13:14:54.674Z,82.37
2023-04-19T13:17:21.435Z,83.18
2023-04-19T13:19:48.115Z,82.18
2023-04-19T13:22:15.570Z,86.40
2023-04-19T13:24:42.271Z,83.03
2023-04-19T13:27:09.371Z,83.30
2023-04-19T13:29:36.478Z,83.83
2023-04-19T13:32:07.119Z,84.00
2023-04-19T13:34:34.104Z,85.47
2023-04-19T13:37:00.938Z,84.78
2023-04-19T13:39:27.549Z,82.67
2023-04-19T13:41:54.198Z,84.03
2023-04-19T13:44:20.837Z,83.03
2023-04-19T13:46:47.572Z,90.22
2023-04-19T13:49:14.231Z,83.15
2023-04-19T13:51:49.715Z,83.65
2023-04-19T13:54:19.007Z,85.38
2023-04-19T13:56:46.343Z,83.05
2023-04-19T13:59:13.070Z,83.20
2023-04-19T14:01:40.620Z,83.55
2023-04-19T14:04:07.561Z,83.10
2023-04-19T14:06:34.422Z,84.47
2023-04-19T14:09:01.040Z,82.85
2023-04-19T14:11:28.064Z,84.38
2023-04-19T14:13:54.856Z,85.53
2023-04-19T14:16:24.183Z,83.45
2023-04-19T14:18:51.236Z,83.22
2023-04-19T14:21:17.941Z,83.65
2023-04-19T14:23:44.607Z,85.85
2023-04-19T14:26:11.260Z,86.10
2023-04-19T14:28:37.876Z,84.72
2023-04-19T14:31:04.619Z,84.63
2023-04-19T14:33:31.891Z,84.22
2023-04-19T14:35:58.609Z,86.07
2023-04-19T14:38:25.263Z,83.90
2023-04-19T14:40:51.875Z,84.07
2023-04-19T14:43:18.529Z,84.63
2023-04-19T14:45:45.181Z,85.80
2023-04-19T14:48:11.903Z,86.13
2023-04-19T14:50:38.692Z,87.03
2023-04-19T14:53:05.419Z,86.75
2023-04-19T14:55:32.058Z,84.68
2023-04-19T14:57:58.684Z,86.63
2023-04-19T15:00:25.552Z,86.15
2023-04-19T15:02:52.293Z,85.53
2023-04-19T15:05:19.242Z,85.35
2023-04-19T15:07:45.956Z,87.07
2023-04-19T15:10:12.579Z,85.85
2023-04-19T15:12:39.198Z,89.15
2023-04-19T15:15:06.970Z,86.70
2023-04-19T15:17:33.665Z,87.35
2023-04-19T15:20:00.406Z,86.10
2023-04-19T15:22:27.091Z,85.80
2023-04-19T15:24:53.724Z,85.78
2023-04-19T15:27:20.328Z,89.00
2023-04-19T15:29:48.123Z,91.15
2023-04-19T15:32:14.763Z,86.15
2023-04-19T15:34:41.397Z,88.35
2023-04-19T15:37:08.539Z,87.05
2023-04-19T15:39:35.298Z,87.45
2023-04-19T15:42:02.056Z,86.10
2023-04-19T15:44:28.929Z,86.22
2023-04-19T15:46:56.159Z,87.95
2023-04-19T15:49:23.023Z,88.30
2023-04-19T15:51:49.608Z,88.15
2023-04-19T15:54:16.352Z,89.60
2023-04-19T15:56:43.082Z,90.70
2023-04-19T15:59:09.709Z,86.53
2023-04-19T16:01:36.439Z,86.53
2023-04-19T16:04:03.961Z,87.45
2023-04-19T16:06:30.769Z,88.28
2023-04-19T16:08:57.397Z,88.82
2023-04-19T16:11:24.353Z,90.40
2023-04-19T16:13:51.095Z,87.47
2023-04-19T16:16:17.758Z,87.95
2023-04-19T16:18:44.415Z,86.72
2023-04-19T16:21:11.057Z,88.05
2023-04-19T16:23:37.763Z,92.80
2023-04-19T16:26:04.580Z,87.15
2023-04-19T16:28:31.197Z,87.13
2023-04-19T16:30:57.802Z,89.75
2023-04-19T16:33:24.408Z,88.90
2023-04-19T16:35:51.229Z,88.50
2023-04-19T16:38:17.863Z,89.07
2023-04-19T16:40:47.699Z,87.65
2023-04-19T16:43:14.380Z,88.63
2023-04-19T16:45:42.735Z,88.75
2023-04-19T16:48:09.442Z,90.57
2023-04-19T16:50:36.158Z,88.53
2023-04-19T16:53:02.763Z,89.30
2023-04-19T16:55:29.491Z,88.22
2023-04-19T16:57:56.111Z,87.38
2023-04-19T17:00:23.249Z,89.03
2023-04-19T17:02:50.029Z,89.50
2023-04-19T17:05:16.793Z,89.32
2023-04-19T17:07:43.871Z,88.07
2023-04-19T17:10:10.891Z,88.88
2023-04-19T17:12:37.517Z,91.55
2023-04-19T17:15:04.583Z,88.13
2023-04-19T17:17:31.252Z,89.13
2023-04-19T17:19:58.003Z,88.68
2023-04-19T17:22:24.790Z,89.63
2023-04-19T17:24:51.554Z,88.32
2023-04-19T17:27:18.160Z,91.43
2023-04-19T17:29:44.938Z,89.03
2023-04-19T17:32:11.642Z,93.97
2023-04-19T17:34:38.318Z,90.45
2023-04-19T17:37:04.941Z,88.10
2023-04-19T17:39:31.610Z,88.88
2023-04-19T17:41:58.428Z,88.55
2023-04-19T17:44:25.081Z,89.70
2023-04-19T17:46:51.811Z,88.82
2023-04-19T17:49:20.060Z,89.03
2023-04-19T17:51:47.404Z,88.53
2023-04-19T17:54:14.624Z,89.68
2023-04-19T17:56:41.278Z,90.30
2023-04-19T17:59:08.437Z,88.82
2023-04-19T18:01:35.154Z,88.68
2023-04-19T18:04:02.667Z,91.68
2023-04-19T18:06:29.526Z,90.80
2023-04-19T18:08:56.127Z,89.30
2023-04-19T18:11:22.855Z,91.43
2023-04-19T18:13:49.507Z,89.88
2023-04-19T18:16:17.307Z,90.90
2023-04-19T18:18:43.982Z,88.55
2023-04-19T18:21:10.696Z,89.75
2023-04-19T18:23:37.439Z,90.65
2023-04-19T18:26:04.214Z,88.97
2023-04-19T18:28:31.113Z,93.05
2023-04-19T18:30:57.817Z,90.32
2023-04-19T18:33:24.520Z,90.00
2023-04-19T18:35:53.120Z,90.53
2023-04-19T18:38:20.832Z,89.63
2023-04-19T18:40:47.706Z,93.20
2023-04-19T18:43:14.357Z,91.70
2023-04-19T18:45:41.033Z,90.35
2023-04-19T18:48:07.880Z,89.78
2023-04-19T18:50:36.134Z,89.05
2023-04-19T18:53:03.251Z,89.40
2023-04-19T18:55:31.108Z,89.50
2023-04-19T18:57:57.738Z,92.55
2023-04-19T19:00:25.134Z,92.38
2023-04-19T19:02:52.871Z,89.43
2023-04-19T19:05:20.096Z,89.85
2023-04-19T19:07:47.273Z,89.10
2023-04-19T19:10:19.163Z,90.53
2023-04-19T19:12:47.446Z,92.65
2023-04-19T19:15:14.637Z,89.13
2023-04-19T19:17:41.362Z,92.07
2023-04-19T19:20:09.834Z,90.25
2023-04-19T19:22:36.547Z,90.25
2023-04-19T19:25:03.408Z,92.78
2023-04-19T19:27:30.097Z,93.90
2023-04-19T19:29:58.621Z,91.30
2023-04-19T19:32:25.456Z,89.78
2023-04-19T19:34:56.541Z,90.70
2023-04-19T19:37:27.521Z,95.63
2023-04-19T19:39:56.485Z,94.70
2023-04-19T19:42:24.821Z,90.63
2023-04-19T19:44:55.305Z,91.38
2023-04-19T19:47:23.661Z,90.78
2023-04-19T19:50:33.670Z,94.97
2023-04-19T19:52:37.649Z,89.72
2023-04-19T19:55:04.716Z,90.47
2023-04-19T19:58:18.693Z,90.50
2023-04-19T20:00:44.978Z,92.45
2023-04-19T20:03:06.357Z,91.13
2023-04-19T20:05:33.933Z,91.78
2023-04-19T20:08:10.378Z,94.57
2023-04-19T20:10:42.246Z,90.85
2023-04-19T20:13:09.478Z,89.80
2023-04-19T20:15:37.685Z,91.25
2023-04-19T20:18:04.977Z,90.05
2023-04-19T20:20:31.750Z,92.50
2023-04-19T20:22:58.390Z,92.65
2023-04-19T20:25:25.252Z,94.10
2023-04-19T20:27:51.875Z,90.38
2023-04-19T20:30:18.513Z,92.38
2023-04-19T20:32:45.374Z,96.40
2023-04-19T20:35:12.469Z,91.40
2023-04-19T20:37:39.777Z,92.53
2023-04-19T20:40:07.918Z,92.03
2023-04-19T20:42:34.548Z,90.47
2023-04-19T20:45:01.231Z,91.53
2023-04-19T20:47:27.965Z,93.05
2023-04-19T20:49:54.607Z,91.70
2023-04-19T20:52:21.241Z,96.22
2023-04-19T20:54:47.860Z,90.97
2023-04-19T20:57:15.200Z,93.13
2023-04-19T20:59:41.828Z,93.00
2023-04-19T21:02:08.667Z,91.78
2023-04-19T21:04:36.135Z,94.25
2023-04-19T21:07:03.139Z,91.85
2023-04-19T21:09:29.793Z,91.38
2023-04-19T21:11:56.508Z,93.68
2023-04-19T21:14:23.107Z,90.85
2023-04-19T21:16:49.781Z,91.13
2023-04-19T21:19:16.606Z,94.82
2023-04-19T21:21:43.456Z,91.47
2023-04-19T21:24:10.078Z,92.88
2023-04-19T21:26:36.704Z,90.35
2023-04-19T21:29:03.380Z,90.57
2023-04-19T21:31:30.112Z,91.57
2023-04-19T21:33:56.754Z,92.57
2023-04-19T21:36:23.379Z,90.72
2023-04-19T21:38:50.028Z,91.55
2023-04-19T21:41:16.660Z,93.78
2023-04-19T21:43:43.310Z,90.63
2023-04-19T21:46:09.992Z,95.45
2023-04-19T21:48:36.644Z,92.82
2023-04-19T21:51:04.036Z,92.95
2023-04-19T21:53:31.341Z,93.78
2023-04-19T21:55:58.054Z,94.35
2023-04-19T21:58:24.688Z,94.25
2023-04-19T22:00:53.370Z,91.95
2023-04-19T22:03:20.193Z,95.28
2023-04-19T22:05:47.065Z,92.82
2023-04-19T22:08:13.720Z,92.25
2023-04-19T22:10:41.046Z,92.47
2023-04-19T22:13:08.777Z,92.85
2023-04-19T22:15:36.368Z,94.50
2023-04-19T22:18:04.588Z,95.53
2023-04-19T22:20:33.659Z,109.10
2023-04-19T22:23:00.434Z,93.90
2023-04-19T22:25:27.304Z,95.07
2023-04-19T22:27:53.967Z,94.40
2023-04-19T22:30:20.778Z,92.90
2023-04-19T22:32:48.123Z,96.40
2023-04-19T22:35:15.249Z,92.35
2023-04-19T22:37:42.315Z,94.18
2023-04-19T22:40:09.742Z,96.60
2023-04-19T22:42:37.157Z,90.93
2023-04-19T22:45:04.158Z,98.68
2023-04-19T22:47:32.241Z,99.85
2023-04-19T22:49:59.266Z,94.75
2023-04-19T22:52:26.295Z,95.95
2023-04-19T22:54:52.908Z,91.55
2023-04-19T22:57:19.532Z,95.10
2023-04-19T22:59:46.145Z,93.60
2023-04-19T23:02:12.791Z,92.47
2023-04-19T23:04:39.440Z,93.65
2023-04-19T23:07:06.295Z,92.93
2023-04-19T23:09:32.970Z,92.50
2023-04-19T23:12:00.532Z,95.53
2023-04-19T23:14:28.318Z,92.78
2023-04-19T23:16:55.023Z,95.18
2023-04-19T23:19:22.737Z,96.20
2023-04-19T23:21:50.298Z,95.72
2023-04-19T23:24:17.772Z,98.07
2023-04-19T23:26:44.496Z,93.93
2023-04-19T23:29:11.125Z,99.78
2023-04-19T23:31:37.841Z,95.28
2023-04-19T23:34:04.609Z,94.18
2023-04-19T23:36:31.257Z,99.05
2023-04-19T23:38:57.960Z,94.95
2023-04-19T23:41:24.695Z,94.45
2023-04-19T23:43:51.490Z,94.30
2023-04-19T23:46:18.191Z,94.20
2023-04-19T23:48:44.878Z,93.18
2023-04-19T23:51:12.548Z,95.10
2023-04-19T23:53:39.215Z,94.43
2023-04-19T23:56:06.529Z,93.55
2023-04-19T23:58:33.152Z,93.32
